Historique des mesures à Cassis (13260), France
Quotidien Résumé Mai 15, 2017 Unités:  US    Métrique   Métrique/US
« Précédent (Jour)
Suivant (Jour) »
Quotidien Hebdomadaire Mensuel Annuel Période au choix
  Maximum: Minimum: Moyenne:
Température: 32 °F 63 °F 67.6 °F
Point de rosée: 32 °F 49.5 °F 54.3 °F
Humidité: Humidity % 54 % 59 %
Vitesse du vent: WindSpeedKMH mph 0.0 mph 4.1 mph
Rafales: WindSpeedGustKMH mph - -
Vent:- - SSE
Pression: 0 in 30.1 in -
Précipitations: 0 in    
Historical Graphs
 
 
Mesures pour : Mai 15, 2017
Heure Temperature Point de rosée Pression Vent Vitesse du vent Rafales Humidité Pluie (par heure) Conditions
32 °F 32 °F 0 in Calm     Humidity % 0 in SoftwareType W/m2
00:10 67.6 °F 50.4 °F 30.1 in NW 25.6 mph 25.6 mph 54 % 0 in open2300-1.11 W/m2
01:10 65.8 °F 51.1 °F 30.1 in West 6.8 mph 17.2 mph 59 % 0 in open2300-1.11 W/m2
02:10 65.1 °F 50.9 °F 30.1 in Calm     60 % 0 in open2300-1.11 W/m2
03:10 63.7 °F 51.3 °F 30.1 in Calm     64 % 0 in open2300-1.11 W/m2
04:11 63.3 °F 51.6 °F 30.1 in NNW 4.3 mph 4.3 mph 66 % 0 in open2300-1.11 W/m2
05:11 64 °F 50.7 °F 30.1 in NNE 5.8 mph 6.8 mph 62 % 0 in open2300-1.11 W/m2
06:10 63 °F 50.2 °F 30.1 in North 5.8 mph 9.7 mph 63 % 0 in open2300-1.11 W/m2
07:10 65.1 °F 49.5 °F 30.1 in North 8.2 mph 8.2 mph 57 % 0 in open2300-1.11 W/m2
08:10 67.8 °F 51.4 °F 30.2 in NNE 2.6 mph 4.7 mph 56 % 0 in open2300-1.11 W/m2
09:10 67.6 °F 51.3 °F 30.2 in ENE 4.7 mph 5.8 mph 56 % 0 in open2300-1.11 W/m2
10:10 66.9 °F 56.5 °F 30.2 in SSE 1.8 mph 15.4 mph 69 % 0 in open2300-1.11 W/m2
11:10 73.2 °F 60.6 °F 30.2 in SW 4.0 mph 6.4 mph 65 % 0 in open2300-1.11 W/m2
12:10 75.4 °F 61.5 °F 30.2 in Calm   7.2 mph 62 % 0 in open2300-1.11 W/m2
13:10 74.7 °F 60.3 °F 30.2 in ESE 6.4 mph 6.4 mph 61 % 0 in open2300-1.11 W/m2
14:10 75.7 °F 60.4 °F 30.2 in SSE 1.1 mph 6.4 mph 59 % 0 in open2300-1.11 W/m2
15:10 76.3 °F 60.4 °F 30.2 in SE 2.6 mph 5.0 mph 58 % 0 in open2300-1.11 W/m2
16:10 75.7 °F 59.4 °F 30.2 in ESE 4.3 mph 4.3 mph 57 % 0 in open2300-1.11 W/m2
17:10 74.1 °F 59.4 °F 30.1 in SE 4.7 mph 4.7 mph 60 % 0 in open2300-1.11 W/m2
18:10 72.9 °F 59.5 °F 30.1 in SE 3.2 mph 5.8 mph 63 % 0 in open2300-1.11 W/m2
19:10 72.5 °F 59.2 °F 30.1 in SSE 5.8 mph 6.1 mph 63 % 0 in open2300-1.11 W/m2
20:10 70.7 °F 57.9 °F 30.1 in NW 4.0 mph 4.0 mph 64 % 0 in open2300-1.11 W/m2
21:10 68.5 °F 56.3 °F 30.2 in Calm     65 % 0 in open2300-1.11 W/m2
22:10 66.2 °F 54.9 °F 30.2 in Calm     67 % 0 in open2300-1.11 W/m2
23:10 64.8 °F 53.4 °F 30.2 in Calm     67 % 0 in open2300-1.11 W/m2
Observations météo à CASSIS
WU-History script by Weather Underground - 1 mb